Time;durP1;ratioP1;P1;durP2;ratioP2;P2;SDS_P1;SDS_P2;PMS_P1;PMS_P2;Temp;Humidity;BMP_temperature;BMP_pressure;BME280_temperature;BME280_humidity;BME280_pressure;Samples;Min_cycle;Max_cycle;Signal;HPM_P1;HPM_P2
2021/12/21 00:00:13;;;;;;;11.20;8.87;;;-0.20;99.90;;;;;;5045562;28;20223;-88
2021/12/21 00:02:50;;;;;;;11.53;7.93;;;-0.30;99.90;;;;;;5026891;28;20204;-89
2021/12/21 00:05:19;;;;;;;15.73;8.47;;;-0.30;99.90;;;;;;5025790;28;20233;-89
2021/12/21 00:07:48;;;;;;;15.87;8.20;;;-0.30;99.90;;;;;;5044833;28;20678;-88
2021/12/21 00:10:14;;;;;;;10.93;8.33;;;-0.20;99.90;;;;;;5020561;28;20203;-89
2021/12/21 00:12:49;;;;;;;11.47;8.13;;;-0.20;99.90;;;;;;5044345;28;20282;-89
2021/12/21 00:15:27;;;;;;;18.17;9.00;;;-0.20;99.90;;;;;;5042582;28;20667;-89
2021/12/21 00:17:59;;;;;;;10.37;7.90;;;-0.10;99.90;;;;;;5022044;28;20220;-87
2021/12/21 00:20:48;;;;;;;10.37;7.77;;;-0.20;99.90;;;;;;5045315;28;20185;-89
2021/12/21 00:25:43;;;;;;;14.03;7.70;;;-0.20;99.90;;;;;;5046826;28;20200;-89
2021/12/21 00:28:09;;;;;;;12.17;7.40;;;-0.20;99.90;;;;;;5040073;28;20212;-88
2021/12/21 00:30:34;;;;;;;12.47;7.50;;;-0.10;99.90;;;;;;5027357;28;20708;-89
2021/12/21 00:33:00;;;;;;;13.17;7.47;;;-0.10;99.90;;;;;;5044067;28;20201;-89
2021/12/21 00:35:26;;;;;;;11.10;7.60;;;-0.20;99.90;;;;;;5038804;28;20204;-87
2021/12/21 00:37:52;;;;;;;12.53;8.00;;;-0.20;99.90;;;;;;5029839;28;20209;-88
2021/12/21 00:40:17;;;;;;;9.90;7.10;;;-0.20;99.90;;;;;;5045869;28;20220;-88
2021/12/21 00:42:43;;;;;;;12.63;6.67;;;-0.20;99.90;;;;;;5043105;28;20211;-89
2021/12/21 00:45:09;;;;;;;12.17;6.97;;;-0.20;99.90;;;;;;5026733;28;20259;-88
2021/12/21 00:47:39;;;;;;;11.40;6.30;;;-0.20;99.90;;;;;;5071753;28;20243;-85
2021/12/21 00:50:08;;;;;;;10.20;6.50;;;-0.30;99.90;;;;;;5075553;28;20248;-86
2021/12/21 00:52:34;;;;;;;12.83;7.50;;;-0.30;99.90;;;;;;5071653;28;20195;-85
2021/12/21 00:54:59;;;;;;;10.47;7.07;;;-0.30;99.90;;;;;;5070307;28;20200;-88
2021/12/21 00:57:25;;;;;;;10.97;7.30;;;-0.30;99.90;;;;;;5058825;28;20365;-88
2021/12/21 00:59:51;;;;;;;11.33;7.53;;;-0.30;99.90;;;;;;5062170;28;20204;-86
2021/12/21 01:02:17;;;;;;;10.87;7.30;;;-0.40;99.90;;;;;;5095362;28;20214;-86
2021/12/21 01:04:47;;;;;;;11.70;7.43;;;-0.50;99.90;;;;;;5055121;28;20204;-89
2021/12/21 01:10:08;;;;;;;11.00;7.40;;;-0.50;99.90;;;;;;5038337;28;20224;-87
2021/12/21 01:17:35;;;;;;;12.47;7.37;;;-0.50;99.90;;;;;;5041633;28;20350;-88
2021/12/21 01:20:11;;;;;;;11.13;6.43;;;-0.60;99.90;;;;;;5050730;28;20209;-88
2021/12/21 01:35:43;;;;;;;11.47;6.80;;;-0.60;99.90;;;;;;5040971;28;20197;-87
2021/12/21 01:38:25;;;;;;;10.97;7.57;;;-0.60;99.90;;;;;;5026340;28;20203;-88
2021/12/21 01:51:43;;;;;;;14.00;7.07;;;-0.70;99.90;;;;;;5042496;28;20192;-88
2021/12/21 01:54:09;;;;;;;10.97;6.87;;;-0.70;99.90;;;;;;5043334;28;20192;-88
2021/12/21 01:56:35;;;;;;;13.07;6.90;;;-0.80;99.90;;;;;;5040044;28;20216;-87
2021/12/21 01:59:00;;;;;;;10.67;6.57;;;-0.70;99.90;;;;;;5056788;28;20246;-87
2021/12/21 02:01:27;;;;;;;12.47;6.70;;;-0.80;99.90;;;;;;5014139;28;20541;-88
2021/12/21 02:03:54;;;;;;;10.77;6.47;;;-0.70;99.90;;;;;;5043668;28;20267;-88
2021/12/21 02:06:24;;;;;;;10.27;6.37;;;-0.60;99.90;;;;;;5043380;28;20223;-87
2021/12/21 02:08:51;;;;;;;14.30;6.60;;;-0.60;99.90;;;;;;5039383;28;20232;-88
2021/12/21 02:11:17;;;;;;;10.70;6.47;;;-0.60;99.90;;;;;;5025585;28;20196;-88
2021/12/21 02:13:47;;;;;;;10.37;6.63;;;-0.60;99.90;;;;;;5043178;28;20224;-87
2021/12/21 02:16:17;;;;;;;8.13;6.00;;;-0.70;99.90;;;;;;5017968;28;20205;-87
2021/12/21 02:18:56;;;;;;;13.07;6.63;;;-0.70;99.90;;;;;;5041380;28;20192;-88
2021/12/21 02:23:49;;;;;;;10.03;6.30;;;-0.70;99.90;;;;;;5044839;28;20671;-88
2021/12/21 02:29:08;;;;;;;9.57;6.07;;;-0.70;99.90;;;;;;5046689;28;20244;-87
2021/12/21 02:31:32;;;;;;;9.70;6.00;;;-0.70;99.90;;;;;;5045002;28;20208;-88
2021/12/21 02:33:58;;;;;;;10.07;6.47;;;-0.70;99.90;;;;;;5039501;28;20197;-88
2021/12/21 02:36:24;;;;;;;11.20;6.17;;;-0.70;99.90;;;;;;5028166;28;20243;-87
2021/12/21 02:38:50;;;;;;;7.20;5.97;;;-0.70;99.90;;;;;;5045433;28;20200;-86
2021/12/21 02:41:16;;;;;;;11.93;6.07;;;-0.70;99.90;;;;;;5035294;28;20200;-88
2021/12/21 02:43:42;;;;;;;14.80;6.40;;;-0.70;99.90;;;;;;5043249;28;20212;-87
2021/12/21 02:46:08;;;;;;;12.10;6.07;;;-0.70;99.90;;;;;;5029734;28;20217;-87
2021/12/21 02:48:34;;;;;;;10.40;6.10;;;-0.60;99.90;;;;;;5044563;28;20247;-88
2021/12/21 02:51:01;;;;;;;8.80;5.27;;;-0.60;99.90;;;;;;5047535;28;20241;-86
2021/12/21 02:53:26;;;;;;;7.60;5.80;;;-0.60;99.90;;;;;;5050152;28;20188;-87
2021/12/21 02:55:52;;;;;;;8.83;5.43;;;-0.60;99.90;;;;;;5045665;28;20326;-87
2021/12/21 02:58:18;;;;;;;9.17;5.70;;;-0.60;99.90;;;;;;5046217;28;20188;-86
2021/12/21 03:00:46;;;;;;;9.07;5.70;;;-0.60;99.90;;;;;;5066479;28;20211;-85
2021/12/21 03:03:14;;;;;;;11.03;6.00;;;-0.50;99.90;;;;;;5056094;28;20248;-85
2021/12/21 03:05:55;;;;;;;8.93;5.30;;;-0.50;99.90;;;;;;5037905;28;20253;-89
2021/12/21 03:08:24;;;;;;;7.27;5.57;;;-0.50;99.70;;;;;;5078198;28;20208;-85
2021/12/21 03:16:21;;;;;;;11.37;6.43;;;-0.50;99.80;;;;;;5045902;28;20587;-85
2021/12/21 03:18:47;;;;;;;12.43;5.97;;;-0.50;99.20;;;;;;5031710;28;20199;-87
2021/12/21 03:21:13;;;;;;;8.83;5.40;;;-0.60;98.80;;;;;;5035466;28;20192;-85
2021/12/21 03:23:40;;;;;;;10.30;6.57;;;-0.70;99.20;;;;;;5049866;28;20250;-88
2021/12/21 03:26:06;;;;;;;8.03;5.73;;;-0.70;99.80;;;;;;5041105;28;20204;-87
2021/12/21 03:28:32;;;;;;;13.57;5.70;;;-0.70;99.70;;;;;;5046339;28;20228;-87
2021/12/21 03:30:58;;;;;;;10.93;5.93;;;-0.60;99.50;;;;;;5047065;28;20208;-87
2021/12/21 03:33:23;;;;;;;9.40;6.17;;;-0.70;99.40;;;;;;5042184;28;20668;-87
2021/12/21 03:35:49;;;;;;;8.97;5.60;;;-0.70;99.40;;;;;;5044994;28;20207;-87
2021/12/21 03:38:16;;;;;;;10.90;5.70;;;-0.70;99.80;;;;;;5049073;28;20335;-85
2021/12/21 03:40:43;;;;;;;7.60;5.40;;;-0.70;99.70;;;;;;5074264;28;20236;-86
2021/12/21 03:43:10;;;;;;;8.17;5.57;;;-0.70;99.30;;;;;;5052948;28;20201;-88
2021/12/21 03:45:47;;;;;;;13.17;5.53;;;-0.70;99.40;;;;;;5050449;28;20189;-88
2021/12/21 03:48:15;;;;;;;7.37;5.53;;;-0.70;99.60;;;;;;5046348;28;20223;-86
2021/12/21 03:50:40;;;;;;;11.20;5.57;;;-0.70;98.70;;;;;;5092353;28;20195;-86
2021/12/21 03:53:06;;;;;;;9.47;5.47;;;-0.80;99.00;;;;;;5071568;28;20203;-88
2021/12/21 03:55:33;;;;;;;8.07;5.63;;;-0.80;99.20;;;;;;5042189;28;20200;-88
2021/12/21 03:57:58;;;;;;;12.33;6.20;;;-0.80;99.40;;;;;;5047877;28;20220;-88
2021/12/21 04:00:27;;;;;;;9.83;5.43;;;-0.80;99.90;;;;;;5043803;28;20335;-87
2021/12/21 04:02:53;;;;;;;12.97;6.30;;;-0.80;99.90;;;;;;5043662;28;20330;-88
2021/12/21 04:05:18;;;;;;;6.87;5.17;;;-0.80;99.90;;;;;;5022830;28;20212;-88
2021/12/21 04:07:44;;;;;;;9.87;5.53;;;-0.80;99.30;;;;;;5028584;28;20220;-88
2021/12/21 04:10:10;;;;;;;6.93;5.43;;;-0.80;99.60;;;;;;5047553;28;20207;-87
2021/12/21 04:12:36;;;;;;;14.10;6.27;;;-0.70;99.60;;;;;;5042578;28;20185;-88
2021/12/21 04:15:03;;;;;;;8.97;5.30;;;-0.70;98.90;;;;;;5043194;28;20192;-87
2021/12/21 04:17:31;;;;;;;8.37;5.33;;;-0.80;98.90;;;;;;5044586;28;20662;-87
2021/12/21 04:19:56;;;;;;;11.10;5.53;;;-0.90;99.00;;;;;;5024293;28;20189;-88
2021/12/21 04:22:22;;;;;;;7.90;5.63;;;-0.90;99.20;;;;;;5031773;28;20188;-87
2021/12/21 04:24:48;;;;;;;9.63;5.90;;;-1.00;99.60;;;;;;5026865;28;20270;-88
2021/12/21 04:27:15;;;;;;;6.77;4.67;;;-1.00;99.80;;;;;;5042771;28;20220;-87
2021/12/21 04:29:41;;;;;;;9.17;6.03;;;-1.10;99.90;;;;;;5036203;28;20204;-88
2021/12/21 04:32:07;;;;;;;10.27;6.00;;;-1.00;99.90;;;;;;5033564;28;20677;-87
2021/12/21 04:34:34;;;;;;;9.77;5.73;;;-1.00;99.90;;;;;;5032047;28;20203;-87
2021/12/21 04:37:00;;;;;;;11.50;6.10;;;-1.00;99.90;;;;;;5048293;28;20212;-88
2021/12/21 04:41:58;;;;;;;10.50;6.30;;;-1.00;99.90;;;;;;5044896;28;20233;-87
2021/12/21 04:44:23;;;;;;;8.47;5.50;;;-0.90;99.90;;;;;;5049214;28;21045;-87
2021/12/21 04:46:49;;;;;;;7.90;5.40;;;-0.80;99.90;;;;;;5045177;28;20208;-87
2021/12/21 04:49:15;;;;;;;11.40;5.83;;;-0.80;99.90;;;;;;5047162;28;20212;-88
2021/12/21 04:51:40;;;;;;;9.87;6.13;;;-0.80;99.30;;;;;;5044243;28;20192;-88
2021/12/21 04:54:06;;;;;;;8.70;5.57;;;-0.80;98.80;;;;;;5045796;28;20219;-88
2021/12/21 04:56:32;;;;;;;8.03;5.77;;;-0.80;98.40;;;;;;5044650;28;20217;-87
2021/12/21 04:58:57;;;;;;;8.83;5.90;;;-0.80;98.70;;;;;;5048285;28;20251;-88
2021/12/21 05:01:23;;;;;;;8.43;5.77;;;-0.90;98.20;;;;;;5043200;28;20214;-88
2021/12/21 05:03:49;;;;;;;10.27;5.57;;;-0.90;98.80;;;;;;5018982;28;20184;-86
2021/12/21 05:06:16;;;;;;;11.87;5.87;;;-0.90;98.60;;;;;;5063815;28;20642;-87
2021/12/21 05:08:42;;;;;;;11.20;5.87;;;-0.90;98.50;;;;;;5051323;28;20656;-88
2021/12/21 05:11:08;;;;;;;14.00;5.23;;;-0.90;98.40;;;;;;5046409;28;20211;-87
2021/12/21 05:13:38;;;;;;;9.43;5.60;;;-0.90;98.30;;;;;;5027535;28;20252;-87
2021/12/21 05:16:05;;;;;;;8.80;5.50;;;-0.90;99.50;;;;;;5032643;28;20250;-87
2021/12/21 05:18:32;;;;;;;8.60;5.90;;;-0.90;99.90;;;;;;5049132;28;20172;-85
2021/12/21 05:20:58;;;;;;;10.60;7.93;;;-0.90;98.40;;;;;;5055726;28;20222;-88
2021/12/21 05:23:24;;;;;;;11.87;7.47;;;-1.00;97.90;;;;;;5047778;28;20274;-86
2021/12/21 05:25:50;;;;;;;10.57;7.60;;;-1.00;98.50;;;;;;5076661;28;20238;-87
2021/12/21 05:28:16;;;;;;;7.97;6.37;;;-1.10;98.70;;;;;;5056346;28;20208;-88
2021/12/21 05:30:43;;;;;;;10.50;6.53;;;-1.10;99.10;;;;;;5029822;28;20188;-88
2021/12/21 05:33:09;;;;;;;12.63;6.70;;;-1.10;99.30;;;;;;5044184;28;20202;-87
2021/12/21 05:35:36;;;;;;;9.37;6.10;;;-1.00;99.20;;;;;;5032362;28;20215;-88
2021/12/21 05:38:05;;;;;;;21.37;6.57;;;-1.10;98.60;;;;;;5046498;28;20216;-88
2021/12/21 05:40:41;;;;;;;9.83;5.97;;;-1.20;98.90;;;;;;5037307;28;20305;-88
2021/12/21 05:43:08;;;;;;;11.40;6.27;;;-1.20;99.40;;;;;;5036043;28;20223;-88
2021/12/21 05:45:34;;;;;;;9.07;6.20;;;-1.10;99.90;;;;;;5032175;28;20211;-88
2021/12/21 05:48:00;;;;;;;10.40;6.63;;;-1.20;99.10;;;;;;5045910;28;20216;-88
2021/12/21 05:50:25;;;;;;;8.30;6.10;;;-1.20;99.30;;;;;;5045044;28;20486;-88
2021/12/21 05:52:51;;;;;;;7.77;6.30;;;-1.20;99.50;;;;;;5030532;28;20193;-87
2021/12/21 05:55:18;;;;;;;15.33;6.20;;;-1.20;99.60;;;;;;5047281;28;20188;-86
2021/12/21 05:57:45;;;;;;;9.97;5.70;;;-1.20;99.70;;;;;;5027137;28;20216;-89
2021/12/21 06:00:16;;;;;;;9.17;5.73;;;-1.20;99.30;;;;;;5035453;28;20230;-89
2021/12/21 06:02:42;;;;;;;8.77;5.60;;;-1.20;99.60;;;;;;5055226;28;20681;-89
2021/12/21 06:05:09;;;;;;;11.63;5.90;;;-1.20;99.50;;;;;;5060239;28;20196;-88
2021/12/21 06:07:34;;;;;;;8.70;5.80;;;-1.10;99.60;;;;;;5059226;28;20215;-88
2021/12/21 06:10:09;;;;;;;6.77;5.20;;;-1.10;99.80;;;;;;5057409;28;20204;-89
2021/12/21 06:12:59;;;;;;;9.57;6.33;;;-1.20;99.00;;;;;;5047146;28;20210;-87
2021/12/21 06:15:35;;;;;;;9.00;6.10;;;-1.20;98.90;;;;;;5053043;28;20223;-88
2021/12/21 06:26:14;;;;;;;11.27;6.23;;;-1.50;99.90;;;;;;5063219;28;20216;-87
2021/12/21 06:28:41;;;;;;;11.30;7.03;;;-1.50;99.90;;;;;;5067141;28;20276;-86
2021/12/21 06:31:07;;;;;;;9.77;6.07;;;-1.60;99.90;;;;;;5077561;28;20214;-88
2021/12/21 06:33:33;;;;;;;6.83;5.90;;;-1.60;99.90;;;;;;5061128;28;20208;-89
2021/12/21 06:36:00;;;;;;;9.30;5.80;;;-1.50;99.90;;;;;;5052388;28;20194;-87
2021/12/21 06:38:27;;;;;;;9.20;7.00;;;-1.50;99.90;;;;;;5067846;28;20212;-86
2021/12/21 06:40:53;;;;;;;8.73;6.60;;;-1.50;99.90;;;;;;5067585;28;20196;-86
2021/12/21 06:43:20;;;;;;;10.83;6.50;;;-1.50;99.90;;;;;;5047716;28;20181;-89
2021/12/21 06:45:55;;;;;;;10.97;6.30;;;-1.50;99.90;;;;;;5046555;28;20189;-89
2021/12/21 06:51:21;;;;;;;9.70;6.73;;;-1.60;99.90;;;;;;5050781;28;20584;-89
2021/12/21 06:53:49;;;;;;;9.53;6.30;;;-1.50;99.90;;;;;;5054132;28;20347;-89
2021/12/21 06:56:16;;;;;;;10.00;6.17;;;-1.60;99.90;;;;;;5057822;28;20690;-89
2021/12/21 06:58:42;;;;;;;10.30;6.57;;;-1.60;99.90;;;;;;5052104;28;20712;-88
2021/12/21 07:01:08;;;;;;;9.57;5.70;;;-1.50;99.90;;;;;;5047630;28;20196;-89
2021/12/21 07:03:34;;;;;;;9.03;6.20;;;-1.60;99.90;;;;;;5047230;28;20253;-89
2021/12/21 07:06:06;;;;;;;10.60;7.77;;;-1.50;99.90;;;;;;5017624;28;20224;-89
2021/12/21 07:08:42;;;;;;;12.87;9.53;;;-1.50;99.90;;;;;;5047699;28;20299;-89
2021/12/21 07:19:03;;;;;;;14.30;7.73;;;-1.50;99.90;;;;;;5051142;28;20231;-89
2021/12/21 07:21:29;;;;;;;10.60;7.53;;;-1.50;99.90;;;;;;5037892;28;20200;-88
2021/12/21 07:23:54;;;;;;;13.50;8.33;;;-1.50;99.90;;;;;;5031217;28;20196;-88
2021/12/21 07:26:20;;;;;;;10.60;7.57;;;-1.50;99.90;;;;;;5051866;28;20221;-90
2021/12/21 07:28:46;;;;;;;11.20;6.97;;;-1.50;99.90;;;;;;5050457;28;20274;-88
2021/12/21 07:31:12;;;;;;;12.53;7.30;;;-1.60;99.90;;;;;;5042065;28;20192;-89
2021/12/21 07:33:38;;;;;;;11.43;8.07;;;-1.50;99.90;;;;;;5048224;28;20605;-88
2021/12/21 07:36:04;;;;;;;8.43;6.50;;;-1.60;99.90;;;;;;5049351;28;20212;-87
2021/12/21 07:38:32;;;;;;;12.87;7.73;;;-1.60;99.90;;;;;;5033785;28;20283;-88
2021/12/21 07:40:59;;;;;;;12.80;9.30;;;-1.60;99.90;;;;;;5069046;28;20188;-86
2021/12/21 07:43:25;;;;;;;7.97;7.17;;;-1.50;99.90;;;;;;5043689;28;20218;-86
2021/12/21 07:45:51;;;;;;;10.90;6.60;;;-1.50;99.90;;;;;;5073857;28;20343;-86
2021/12/21 07:48:18;;;;;;;13.90;7.77;;;-1.50;99.90;;;;;;5067845;28;20792;-89
2021/12/21 07:50:46;;;;;;;12.27;9.60;;;-1.40;99.90;;;;;;5033645;28;20655;-89
2021/12/21 07:53:16;;;;;;;13.63;8.40;;;-1.50;99.90;;;;;;5049211;28;20188;-89
2021/12/21 07:55:42;;;;;;;12.97;7.83;;;-1.40;99.90;;;;;;5046083;28;20220;-89
2021/12/21 07:58:08;;;;;;;10.17;7.57;;;-1.40;99.90;;;;;;5030622;28;20211;-89
2021/12/21 08:00:34;;;;;;;12.03;7.40;;;-1.40;99.90;;;;;;5048911;28;20246;-89
2021/12/21 08:03:00;;;;;;;12.27;7.97;;;-1.40;99.90;;;;;;5019117;28;20592;-88
2021/12/21 08:05:31;;;;;;;11.27;7.60;;;-1.40;99.90;;;;;;5045471;28;20279;-89
2021/12/21 08:08:07;;;;;;;9.50;7.67;;;-1.40;99.90;;;;;;5047713;28;20303;-89
2021/12/21 08:10:43;;;;;;;12.10;6.87;;;-1.40;99.90;;;;;;5047070;28;20955;-87
2021/12/21 08:13:09;;;;;;;10.90;7.53;;;-1.30;99.90;;;;;;5031527;28;20204;-89
2021/12/21 08:15:35;;;;;;;10.03;7.40;;;-1.30;99.90;;;;;;5047427;28;20268;-89
2021/12/21 08:18:01;;;;;;;9.67;7.30;;;-1.30;99.90;;;;;;5029309;28;20307;-89
2021/12/21 08:20:27;;;;;;;9.73;7.10;;;-1.40;99.90;;;;;;5060735;28;20372;-88
2021/12/21 08:22:54;;;;;;;12.67;7.93;;;-1.30;99.90;;;;;;5038507;28;20188;-89
2021/12/21 08:25:25;;;;;;;11.43;7.70;;;-1.30;99.90;;;;;;5045971;28;20590;-88
2021/12/21 08:27:58;;;;;;;10.57;7.53;;;-1.30;99.90;;;;;;5034659;28;20209;-89
2021/12/21 08:30:25;;;;;;;10.40;7.50;;;-1.30;99.90;;;;;;5040463;28;20264;-87
2021/12/21 08:32:51;;;;;;;15.37;7.83;;;-1.30;99.90;;;;;;5052210;28;20283;-88
2021/12/21 08:35:17;;;;;;;10.67;7.73;;;-1.20;99.90;;;;;;5051868;28;20265;-86
2021/12/21 08:37:51;;;;;;;9.53;6.57;;;-1.20;99.90;;;;;;5048703;28;20200;-88
2021/12/21 08:40:22;;;;;;;12.30;7.43;;;-1.20;99.90;;;;;;5053631;28;20192;-85
2021/12/21 08:42:50;;;;;;;22.33;9.43;;;-1.00;99.90;;;;;;5051331;28;21177;-85
2021/12/21 08:45:18;;;;;;;13.13;8.63;;;-0.90;99.90;;;;;;5038653;28;20177;-83
2021/12/21 08:47:44;;;;;;;21.20;8.97;;;-0.80;99.90;;;;;;5048182;28;20276;-85
2021/12/21 08:50:13;;;;;;;43.83;13.93;;;-0.70;99.40;;;;;;5054404;28;20231;-86
2021/12/21 08:52:39;;;;;;;31.77;10.33;;;-0.70;99.50;;;;;;5053957;28;20207;-86
2021/12/21 08:55:07;;;;;;;35.00;15.43;;;-0.60;99.20;;;;;;5050424;28;20605;-86
2021/12/21 08:57:33;;;;;;;75.47;26.10;;;-0.50;98.70;;;;;;5050398;28;20211;-86
2021/12/21 08:59:59;;;;;;;37.50;13.87;;;-0.60;98.80;;;;;;5031980;28;20212;-86
2021/12/21 09:02:28;;;;;;;22.43;10.27;;;-0.40;98.50;;;;;;5050275;28;20966;-87
2021/12/21 09:04:53;;;;;;;16.27;8.40;;;-0.30;98.60;;;;;;5048769;28;20204;-85
2021/12/21 09:07:19;;;;;;;31.60;18.10;;;-0.20;97.10;;;;;;5046402;28;20227;-89
2021/12/21 09:09:45;;;;;;;11.57;7.17;;;-0.30;97.10;;;;;;5050033;28;20209;-88
2021/12/21 09:12:10;;;;;;;10.03;7.90;;;-0.30;96.90;;;;;;5046687;28;20220;-89
2021/12/21 09:14:36;;;;;;;10.50;8.00;;;-0.30;97.40;;;;;;5051887;28;20272;-89
2021/12/21 09:17:03;;;;;;;15.47;10.23;;;-0.40;97.80;;;;;;5051425;28;20207;-85
2021/12/21 09:19:29;;;;;;;22.93;8.23;;;-0.40;97.60;;;;;;5075329;28;20175;-89
2021/12/21 09:21:55;;;;;;;10.60;7.13;;;-0.40;97.90;;;;;;5060669;28;20192;-87
2021/12/21 09:24:21;;;;;;;18.20;9.77;;;-0.30;97.90;;;;;;5057427;28;20200;-86
2021/12/21 09:26:47;;;;;;;12.20;7.93;;;-0.30;97.90;;;;;;5054383;28;20235;-86
2021/12/21 09:29:13;;;;;;;16.53;11.40;;;-0.30;97.60;;;;;;5071431;28;20216;-87
2021/12/21 09:31:38;;;;;;;18.73;8.77;;;-0.30;97.50;;;;;;5048232;28;20219;-88
2021/12/21 09:34:04;;;;;;;12.40;7.27;;;-0.20;97.70;;;;;;5030539;28;20207;-87
2021/12/21 09:36:30;;;;;;;9.70;6.63;;;-0.10;97.60;;;;;;5049777;28;20216;-88
2021/12/21 09:38:57;;;;;;;11.77;8.10;;;0.00;97.50;;;;;;5054531;28;20207;-88
2021/12/21 09:41:23;;;;;;;12.73;7.73;;;0.00;97.10;;;;;;5064373;28;20184;-88
2021/12/21 09:43:49;;;;;;;11.33;7.73;;;0.10;96.20;;;;;;5063815;28;20188;-88
2021/12/21 09:46:16;;;;;;;13.73;8.20;;;0.10;95.90;;;;;;5038655;28;20220;-90
2021/12/21 09:48:42;;;;;;;9.27;7.13;;;0.20;96.10;;;;;;5055249;28;20224;-89
2021/12/21 09:51:08;;;;;;;9.67;6.87;;;0.30;95.90;;;;;;5036610;28;20199;-87
2021/12/21 09:53:36;;;;;;;10.93;8.30;;;0.40;94.80;;;;;;5053713;28;20204;-88
2021/12/21 09:56:04;;;;;;;13.17;7.23;;;0.50;95.30;;;;;;5067788;28;20212;-85
2021/12/21 09:58:30;;;;;;;14.63;7.27;;;0.60;94.30;;;;;;5065930;28;20215;-86
2021/12/21 10:00:56;;;;;;;13.70;7.40;;;0.70;93.90;;;;;;5072735;28;20267;-86
2021/12/21 10:03:21;;;;;;;9.10;7.20;;;0.80;93.30;;;;;;5071803;28;20188;-89
2021/12/21 10:05:47;;;;;;;9.10;6.70;;;1.00;92.90;;;;;;5045037;28;20199;-89
2021/12/21 10:08:17;;;;;;;9.93;8.03;;;1.00;92.00;;;;;;5055558;28;20208;-88
2021/12/21 10:10:54;;;;;;;19.03;14.20;;;1.10;91.90;;;;;;5037507;28;20220;-87
2021/12/21 10:13:25;;;;;;;10.40;7.90;;;1.10;92.10;;;;;;5051879;28;20195;-90
2021/12/21 10:16:04;;;;;;;13.97;9.70;;;1.20;90.90;;;;;;5059663;28;20216;-87
2021/12/21 10:18:38;;;;;;;17.17;9.60;;;1.40;90.40;;;;;;5051406;28;20188;-88
2021/12/21 10:21:06;;;;;;;13.23;9.83;;;1.60;89.60;;;;;;5053374;28;20227;-87
2021/12/21 10:23:35;;;;;;;13.57;9.50;;;1.70;89.70;;;;;;5048232;28;20630;-88
2021/12/21 10:26:04;;;;;;;12.30;10.77;;;1.80;89.40;;;;;;5054082;28;20196;-85
2021/12/21 10:28:42;;;;;;;15.60;8.90;;;1.90;88.60;;;;;;5050735;28;20284;-89
2021/12/21 10:31:14;;;;;;;12.30;7.50;;;2.00;88.00;;;;;;5052547;28;20189;-88
2021/12/21 10:33:44;;;;;;;13.43;8.40;;;2.20;87.30;;;;;;5053588;28;20297;-87
2021/12/21 10:36:10;;;;;;;24.03;18.90;;;2.30;87.70;;;;;;5053502;28;20216;-86
2021/12/21 10:38:42;;;;;;;12.17;8.13;;;2.50;85.70;;;;;;5051623;28;20196;-87
2021/12/21 10:41:13;;;;;;;14.70;9.30;;;2.50;84.80;;;;;;5054907;28;20210;-88
2021/12/21 10:43:39;;;;;;;13.30;9.63;;;2.50;84.70;;;;;;5035546;28;20207;-88
2021/12/21 10:46:05;;;;;;;11.60;8.07;;;2.70;84.00;;;;;;5051220;28;20224;-89
2021/12/21 10:48:35;;;;;;;7.60;6.80;;;2.70;84.20;;;;;;5002481;28;20705;-86
2021/12/21 10:51:01;;;;;;;10.07;7.53;;;2.70;83.40;;;;;;5050937;28;20605;-88
2021/12/21 10:53:27;;;;;;;10.23;5.97;;;2.70;83.70;;;;;;5031641;28;20636;-89
2021/12/21 10:56:00;;;;;;;8.63;6.13;;;2.80;82.00;;;;;;5052403;28;20204;-88
2021/12/21 10:58:28;;;;;;;9.53;6.07;;;2.90;83.00;;;;;;5053626;28;20188;-89
2021/12/21 11:01:01;;;;;;;8.20;6.50;;;2.90;82.10;;;;;;5052918;28;20192;-87
2021/12/21 11:03:37;;;;;;;9.80;6.70;;;3.10;82.70;;;;;;5048871;28;20209;-89
2021/12/21 11:06:30;;;;;;;8.13;6.60;;;3.30;81.80;;;;;;5032966;28;20707;-88
2021/12/21 11:08:57;;;;;;;10.60;6.63;;;3.40;80.40;;;;;;5032966;28;20224;-89
2021/12/21 11:11:44;;;;;;;11.10;7.07;;;3.60;79.50;;;;;;5052458;28;20655;-89
2021/12/21 11:14:15;;;;;;;10.37;7.33;;;3.60;78.40;;;;;;5050325;28;20551;-88
2021/12/21 11:16:46;;;;;;;10.27;5.90;;;3.70;78.60;;;;;;5047919;28;20244;-87
2021/12/21 11:19:15;;;;;;;12.03;7.80;;;3.70;76.50;;;;;;5016968;28;20195;-89
2021/12/21 11:21:42;;;;;;;13.80;8.60;;;3.80;77.40;;;;;;5054139;28;20250;-89
2021/12/21 11:24:10;;;;;;;9.97;6.10;;;3.90;76.10;;;;;;5054450;28;20211;-88
2021/12/21 11:26:37;;;;;;;9.40;6.33;;;4.20;74.10;;;;;;5050353;28;20208;-90
2021/12/21 11:29:09;;;;;;;10.10;6.43;;;4.20;74.10;;;;;;5052561;28;20212;-90
2021/12/21 11:31:40;;;;;;;9.57;5.30;;;4.30;73.50;;;;;;5036242;28;20197;-89
2021/12/21 11:34:09;;;;;;;8.83;5.50;;;4.50;71.50;;;;;;5050966;28;20195;-88
2021/12/21 11:39:21;;;;;;;9.43;5.93;;;4.60;70.60;;;;;;5046264;28;20265;-90
2021/12/21 11:41:47;;;;;;;6.03;5.00;;;4.40;68.20;;;;;;5034455;28;20773;-90
2021/12/21 11:44:40;;;;;;;7.33;5.33;;;4.50;68.50;;;;;;5032194;28;20741;-89
2021/12/21 11:47:10;;;;;;;8.67;5.80;;;4.80;68.50;;;;;;5040010;28;20536;-89
2021/12/21 11:49:54;;;;;;;7.47;5.40;;;4.80;67.40;;;;;;5051014;28;20212;-88
2021/12/21 11:52:23;;;;;;;6.90;4.70;;;4.90;66.10;;;;;;5048435;28;20723;-89
2021/12/21 11:54:54;;;;;;;8.20;4.90;;;4.90;65.80;;;;;;5048296;28;20250;-90
2021/12/21 11:57:32;;;;;;;7.43;5.27;;;4.70;65.80;;;;;;5026907;28;20721;-87
2021/12/21 12:00:11;;;;;;;9.03;5.17;;;4.70;66.60;;;;;;5044250;28;20196;-90
2021/12/21 12:02:38;;;;;;;7.77;4.70;;;4.70;66.30;;;;;;5054934;28;20211;-86
2021/12/21 12:05:24;;;;;;;8.87;5.07;;;4.90;65.40;;;;;;5073761;28;20184;-86
2021/12/21 12:08:08;;;;;;;7.23;5.37;;;5.10;65.10;;;;;;5054080;28;20223;-88
2021/12/21 12:10:37;;;;;;;7.23;5.60;;;5.10;64.90;;;;;;5073903;28;20286;-88
2021/12/21 12:13:13;;;;;;;7.37;6.60;;;5.40;64.90;;;;;;5058849;28;20180;-84
2021/12/21 12:15:46;;;;;;;7.97;5.67;;;5.50;63.10;;;;;;5076988;28;20194;-90
2021/12/21 12:18:23;;;;;;;8.60;6.70;;;5.60;63.30;;;;;;5050409;28;20184;-87
2021/12/21 12:20:50;;;;;;;7.47;5.50;;;5.70;62.30;;;;;;5044408;28;20562;-90
2021/12/21 12:23:19;;;;;;;11.60;8.43;;;5.80;62.30;;;;;;5046853;28;20652;-89
2021/12/21 12:25:54;;;;;;;8.40;7.17;;;5.60;62.30;;;;;;5028048;28;20183;-90
2021/12/21 12:28:33;;;;;;;6.80;5.07;;;5.50;63.10;;;;;;5047947;28;20235;-90
2021/12/21 12:30:59;;;;;;;8.93;5.47;;;5.40;63.30;;;;;;5045739;28;20188;-88
2021/12/21 12:33:37;;;;;;;7.57;5.30;;;5.60;63.00;;;;;;5049434;28;20632;-89
2021/12/21 12:36:03;;;;;;;6.87;5.30;;;5.50;62.70;;;;;;5051608;28;20201;-89
2021/12/21 12:38:30;;;;;;;7.87;5.67;;;5.70;62.40;;;;;;5034350;28;20249;-89
2021/12/21 12:41:02;;;;;;;5.83;4.97;;;5.70;62.60;;;;;;5051581;28;20223;-89
2021/12/21 12:43:32;;;;;;;8.93;4.80;;;5.80;62.30;;;;;;5050588;28;20191;-90
2021/12/21 12:46:04;;;;;;;7.60;5.13;;;5.50;62.70;;;;;;5049789;28;20576;-89
2021/12/21 12:48:47;;;;;;;6.37;4.90;;;5.50;62.70;;;;;;5047643;28;20745;-89
2021/12/21 12:51:30;;;;;;;6.40;4.83;;;5.30;63.40;;;;;;5033092;28;20200;-88
2021/12/21 12:53:56;;;;;;;8.40;5.30;;;5.20;63.50;;;;;;5049336;28;20235;-88
2021/12/21 12:56:22;;;;;;;7.10;5.13;;;5.00;64.60;;;;;;5037195;28;20243;-88
2021/12/21 12:58:55;;;;;;;7.87;4.60;;;4.90;64.70;;;;;;5034552;28;20513;-86
2021/12/21 13:01:26;;;;;;;5.83;5.00;;;4.70;64.80;;;;;;5048605;28;20196;-88
2021/12/21 13:03:58;;;;;;;5.33;4.63;;;4.50;66.20;;;;;;5047692;28;20180;-87
2021/12/21 13:06:27;;;;;;;7.33;4.83;;;4.20;66.60;;;;;;5049437;28;20269;-88
2021/12/21 13:08:53;;;;;;;7.13;5.00;;;4.10;68.00;;;;;;5033460;28;20208;-88
2021/12/21 13:11:26;;;;;;;7.20;5.17;;;4.00;68.10;;;;;;5049575;28;20702;-88
2021/12/21 13:13:55;;;;;;;9.23;5.13;;;4.00;69.20;;;;;;5045939;28;20180;-90
2021/12/21 13:16:23;;;;;;;6.50;5.00;;;4.10;69.20;;;;;;5043350;28;20212;-88
2021/12/21 13:19:00;;;;;;;5.73;4.63;;;4.00;69.50;;;;;;5044875;28;20211;-89
2021/12/21 13:21:27;;;;;;;6.47;4.57;;;4.10;68.30;;;;;;5051298;28;20196;-86
2021/12/21 13:24:11;;;;;;;4.80;4.30;;;4.00;69.50;;;;;;5029555;28;20204;-86
2021/12/21 13:26:55;;;;;;;5.53;4.47;;;3.90;69.30;;;;;;5046729;28;20299;-88
2021/12/21 13:29:44;;;;;;;6.20;5.10;;;3.90;69.80;;;;;;5037824;28;20897;-87
2021/12/21 13:32:14;;;;;;;5.13;4.07;;;3.80;68.90;;;;;;5041660;28;20176;-87
2021/12/21 13:34:42;;;;;;;7.27;4.80;;;3.70;69.20;;;;;;5047895;28;20263;-87
2021/12/21 13:37:12;;;;;;;7.00;4.57;;;3.70;69.40;;;;;;5042820;28;20314;-88
2021/12/21 13:39:44;;;;;;;6.27;5.00;;;3.70;69.20;;;;;;5042555;28;20188;-89
2021/12/21 13:42:19;;;;;;;7.10;5.03;;;3.70;69.10;;;;;;5046881;28;20200;-88
2021/12/21 13:44:51;;;;;;;6.20;5.17;;;3.70;68.70;;;;;;5047635;28;20203;-89
2021/12/21 13:47:22;;;;;;;5.57;4.80;;;3.70;69.20;;;;;;5040614;28;20207;-88
2021/12/21 13:50:00;;;;;;;6.70;6.00;;;3.70;69.10;;;;;;5047961;28;20215;-88
2021/12/21 13:52:30;;;;;;;7.77;4.53;;;3.60;69.50;;;;;;5047786;28;20179;-89
2021/12/21 13:54:56;;;;;;;12.17;9.60;;;3.70;69.40;;;;;;5056838;28;20196;-87
2021/12/21 13:57:25;;;;;;;9.10;5.30;;;3.70;69.40;;;;;;5050834;28;20250;-86
2021/12/21 13:59:52;;;;;;;5.77;4.43;;;3.70;69.20;;;;;;5057525;28;20191;-85